Time;durP1;ratioP1;P1;durP2;ratioP2;P2;SDS_P1;SDS_P2;PMS_P1;PMS_P2;Temp;Humidity;BMP_temperature;BMP_pressure;BME280_temperature;BME280_humidity;BME280_pressure;Samples;Min_cycle;Max_cycle;Signal;HPM_P1;HPM_P2
2024/01/03 00:00:53;;;;;;;4.05;1.83;;;13.30;67.30;;;;;;7758296;22;20044;-76
2024/01/03 00:03:55;;;;;;;7.53;2.17;;;13.30;67.30;;;;;;7758511;22;20003;-76
2024/01/03 00:06:56;;;;;;;5.03;2.00;;;13.30;67.30;;;;;;7784278;22;20010;-76
2024/01/03 00:10:35;;;;;;;9.57;2.75;;;13.30;67.30;;;;;;7784281;22;20023;-77
2024/01/03 00:13:35;;;;;;;4.65;2.30;;;13.30;67.30;;;;;;7594193;23;20009;-76
2024/01/03 00:16:42;;;;;;;3.08;2.05;;;13.20;67.20;;;;;;7620008;23;20012;-76
2024/01/03 00:19:44;;;;;;;4.45;2.00;;;13.20;67.50;;;;;;7620182;23;20096;-75
2024/01/03 00:22:44;;;;;;;6.35;2.30;;;13.20;67.50;;;;;;7619026;23;20072;-77
2024/01/03 00:25:45;;;;;;;3.85;2.42;;;13.10;67.50;;;;;;7620176;23;20017;-76
2024/01/03 00:28:46;;;;;;;3.90;2.58;;;13.00;67.70;;;;;;7619735;23;20119;-77
2024/01/03 00:31:47;;;;;;;5.00;2.15;;;13.00;67.90;;;;;;7594255;23;20112;-76
2024/01/03 00:34:49;;;;;;;5.38;2.38;;;12.90;67.90;;;;;;7595357;23;20661;-76
2024/01/03 00:37:50;;;;;;;4.57;2.35;;;12.90;68.20;;;;;;7619605;23;20504;-76
2024/01/03 00:40:55;;;;;;;5.20;2.47;;;12.80;68.30;;;;;;7593923;23;20016;-75
2024/01/03 00:43:56;;;;;;;3.95;2.30;;;12.80;68.60;;;;;;7620111;23;20111;-77
2024/01/03 00:46:58;;;;;;;4.38;2.80;;;12.70;68.60;;;;;;7631120;22;20170;-76
2024/01/03 00:49:58;;;;;;;4.63;2.58;;;12.70;68.80;;;;;;7746225;22;20004;-76
2024/01/03 00:52:59;;;;;;;5.95;2.53;;;12.70;69.00;;;;;;7745320;22;20159;-76
2024/01/03 00:56:01;;;;;;;3.15;2.10;;;12.70;69.00;;;;;;7773190;22;20599;-76
2024/01/03 00:59:03;;;;;;;5.43;3.10;;;12.70;69.00;;;;;;7720760;22;20321;-77
2024/01/03 01:02:06;;;;;;;6.03;2.80;;;12.70;69.00;;;;;;7721170;22;20354;-76
2024/01/03 01:05:07;;;;;;;6.60;2.50;;;12.60;69.00;;;;;;7745828;22;20019;-76
2024/01/03 01:08:07;;;;;;;5.70;2.78;;;12.60;69.10;;;;;;7745689;22;20000;-76
2024/01/03 01:11:08;;;;;;;7.10;2.67;;;12.60;69.20;;;;;;7745164;22;20075;-76
2024/01/03 01:14:09;;;;;;;5.28;2.63;;;12.60;69.20;;;;;;7770917;22;19996;-77
2024/01/03 01:17:10;;;;;;;7.00;3.63;;;12.60;69.20;;;;;;7743818;22;20559;-77
2024/01/03 01:20:11;;;;;;;8.35;3.10;;;12.60;69.20;;;;;;7744777;22;20031;-76
2024/01/03 01:23:12;;;;;;;4.85;2.45;;;12.60;70.10;;;;;;7744757;22;20010;-76
2024/01/03 01:26:13;;;;;;;3.38;2.17;;;12.50;69.20;;;;;;7771662;22;20051;-75
2024/01/03 01:29:14;;;;;;;5.03;2.17;;;12.60;69.30;;;;;;7744708;22;20003;-75
2024/01/03 01:32:14;;;;;;;2.60;1.30;;;12.50;69.40;;;;;;7744913;22;20342;-76
2024/01/03 01:35:17;;;;;;;2.22;1.10;;;12.50;69.50;;;;;;7719362;22;20004;-76
2024/01/03 01:38:18;;;;;;;5.30;2.15;;;12.70;69.70;;;;;;7745488;22;20100;-77
2024/01/03 01:41:19;;;;;;;4.32;2.05;;;12.60;69.40;;;;;;7748979;22;20011;-76
2024/01/03 01:44:20;;;;;;;3.78;2.08;;;12.60;69.40;;;;;;7757374;22;20430;-76
2024/01/03 01:47:21;;;;;;;2.35;1.45;;;12.70;69.20;;;;;;7782313;22;20137;-77
2024/01/03 01:50:22;;;;;;;3.70;2.10;;;12.60;69.10;;;;;;7756755;22;20030;-76
2024/01/03 01:53:23;;;;;;;6.88;2.17;;;12.60;69.00;;;;;;7756718;22;20102;-75
2024/01/03 01:56:25;;;;;;;4.53;1.92;;;12.60;69.00;;;;;;7783286;22;20049;-76
2024/01/03 01:59:26;;;;;;;4.95;1.50;;;12.60;69.00;;;;;;7757914;22;20003;-77
2024/01/03 02:02:27;;;;;;;2.33;1.55;;;12.60;68.90;;;;;;7757462;22;20425;-75
2024/01/03 02:05:28;;;;;;;5.50;2.40;;;12.60;69.10;;;;;;7782827;22;20007;-77
2024/01/03 02:08:30;;;;;;;4.40;2.45;;;12.60;69.00;;;;;;7757783;22;20304;-76
2024/01/03 02:11:31;;;;;;;1.77;1.33;;;12.50;68.90;;;;;;7757937;22;20011;-76
2024/01/03 02:14:32;;;;;;;5.28;2.45;;;12.60;68.90;;;;;;7784466;22;20003;-76
2024/01/03 02:17:36;;;;;;;5.68;1.92;;;12.50;68.80;;;;;;7756829;22;20014;-76
2024/01/03 02:20:38;;;;;;;1.83;1.20;;;12.40;68.90;;;;;;7756740;22;20105;-76
2024/01/03 02:23:39;;;;;;;4.00;1.88;;;12.40;69.00;;;;;;7756866;22;20068;-75
2024/01/03 02:26:40;;;;;;;2.47;1.42;;;12.40;69.00;;;;;;7756753;22;20018;-76
2024/01/03 02:29:41;;;;;;;2.90;1.73;;;12.30;69.10;;;;;;7757260;22;19999;-76
2024/01/03 02:32:42;;;;;;;3.08;2.10;;;12.30;69.10;;;;;;7756978;22;19999;-77
2024/01/03 02:35:43;;;;;;;4.20;2.20;;;12.30;69.10;;;;;;7732703;22;20345;-76
2024/01/03 02:38:50;;;;;;;3.13;2.05;;;12.20;69.20;;;;;;7782654;22;20082;-77
2024/01/03 02:41:50;;;;;;;3.38;1.98;;;12.20;69.30;;;;;;7758180;22;20303;-76
2024/01/03 02:44:51;;;;;;;4.63;2.50;;;12.10;69.30;;;;;;7756887;22;20061;-77
2024/01/03 02:47:52;;;;;;;3.92;2.35;;;12.10;69.30;;;;;;7781901;22;20021;-76
2024/01/03 02:50:53;;;;;;;6.43;2.97;;;12.10;69.40;;;;;;7782550;22;20007;-76
2024/01/03 02:53:54;;;;;;;6.10;2.85;;;12.00;69.60;;;;;;7756598;22;20087;-76
2024/01/03 02:56:55;;;;;;;3.83;2.63;;;11.90;69.70;;;;;;7782154;22;20397;-76
2024/01/03 02:59:55;;;;;;;5.70;2.50;;;11.90;69.90;;;;;;7781464;22;20026;-76
2024/01/03 03:02:56;;;;;;;5.97;2.63;;;11.80;70.10;;;;;;7756427;22;20003;-74
2024/01/03 03:05:57;;;;;;;5.75;2.58;;;11.80;70.40;;;;;;7758120;22;20019;-76
2024/01/03 03:08:58;;;;;;;6.60;2.42;;;11.70;70.50;;;;;;7759110;22;20056;-75
2024/01/03 03:12:00;;;;;;;4.78;2.55;;;11.70;70.70;;;;;;7759522;22;20434;-76
2024/01/03 03:15:02;;;;;;;5.05;2.42;;;11.70;70.80;;;;;;7784456;22;20007;-77
2024/01/03 03:18:04;;;;;;;4.03;2.50;;;11.60;70.90;;;;;;7811651;22;20010;-77
2024/01/03 03:21:07;;;;;;;3.72;2.17;;;11.60;71.00;;;;;;7784223;22;20010;-76
2024/01/03 03:24:08;;;;;;;3.78;1.98;;;11.60;71.20;;;;;;7784389;22;20320;-75
2024/01/03 03:27:09;;;;;;;4.55;2.40;;;11.60;71.20;;;;;;7784787;22;20027;-78
2024/01/03 03:30:10;;;;;;;4.88;2.40;;;11.50;71.30;;;;;;7759171;22;20425;-76
2024/01/03 03:33:11;;;;;;;7.32;2.78;;;11.50;71.30;;;;;;7759573;22;20083;-76
2024/01/03 03:36:13;;;;;;;3.90;2.33;;;11.50;71.40;;;;;;7759447;22;19999;-76
2024/01/03 03:39:13;;;;;;;6.60;3.10;;;11.40;71.30;;;;;;7812776;22;20678;-76
2024/01/03 03:42:14;;;;;;;4.30;2.17;;;11.40;71.40;;;;;;7784840;22;20056;-76
2024/01/03 03:45:15;;;;;;;7.22;3.13;;;11.40;71.30;;;;;;7786012;22;20426;-75
2024/01/03 03:48:16;;;;;;;6.05;2.67;;;11.40;71.30;;;;;;7784061;22;20065;-76
2024/01/03 03:51:18;;;;;;;4.72;2.45;;;11.40;71.40;;;;;;7784261;22;20078;-76
2024/01/03 03:54:19;;;;;;;5.18;3.13;;;11.40;71.50;;;;;;7757821;22;20006;-76
2024/01/03 03:57:19;;;;;;;7.75;3.58;;;11.40;71.40;;;;;;7732653;22;20097;-76
2024/01/03 04:00:20;;;;;;;4.75;2.75;;;11.40;71.40;;;;;;7784208;22;20021;-76
2024/01/03 04:03:21;;;;;;;6.57;2.33;;;11.30;71.40;;;;;;7758261;22;20357;-77
2024/01/03 04:06:22;;;;;;;5.55;2.67;;;11.40;71.40;;;;;;7786037;22;20030;-76
2024/01/03 04:09:26;;;;;;;6.78;3.05;;;11.30;71.40;;;;;;7784670;22;20764;-76
2024/01/03 04:12:28;;;;;;;5.75;2.58;;;11.30;71.40;;;;;;7785222;22;20460;-77
2024/01/03 04:15:31;;;;;;;5.28;3.03;;;11.30;71.40;;;;;;7811871;22;19995;-75
2024/01/03 04:18:33;;;;;;;4.25;2.33;;;11.30;71.50;;;;;;7811393;22;20027;-78
2024/01/03 04:21:34;;;;;;;5.53;2.97;;;11.30;71.60;;;;;;7783904;22;21601;-75
2024/01/03 04:24:35;;;;;;;4.47;2.70;;;11.20;71.50;;;;;;7784415;22;20018;-76
2024/01/03 04:27:37;;;;;;;5.40;3.28;;;11.20;71.50;;;;;;7757906;22;20007;-75
2024/01/03 04:30:38;;;;;;;8.25;3.08;;;11.20;71.60;;;;;;7783665;22;20428;-75
2024/01/03 04:33:39;;;;;;;5.97;1.73;;;11.20;71.70;;;;;;7783959;22;20004;-77
2024/01/03 04:36:41;;;;;;;8.48;2.80;;;11.20;71.80;;;;;;7783770;22;20413;-75
2024/01/03 04:39:42;;;;;;;8.55;2.70;;;11.20;71.90;;;;;;7782997;22;20052;-76
2024/01/03 04:42:45;;;;;;;5.47;2.13;;;11.30;71.80;;;;;;7812024;22;20025;-77
2024/01/03 04:45:47;;;;;;;5.03;2.17;;;11.30;71.70;;;;;;7810677;22;20015;-75
2024/01/03 04:48:48;;;;;;;3.80;1.98;;;11.30;71.60;;;;;;7755981;22;19999;-76
2024/01/03 04:51:48;;;;;;;3.38;2.20;;;11.30;71.50;;;;;;7783072;22;20045;-76
2024/01/03 04:54:49;;;;;;;1.85;1.48;;;11.40;71.90;;;;;;7757199;22;20345;-77
2024/01/03 04:57:52;;;;;;;3.20;2.10;;;11.40;71.40;;;;;;7783300;22;20011;-76
2024/01/03 05:00:53;;;;;;;2.45;1.38;;;11.50;71.40;;;;;;7782640;22;20080;-76
2024/01/03 05:03:54;;;;;;;2.25;1.40;;;11.50;71.20;;;;;;7785351;22;20022;-77
2024/01/03 05:06:54;;;;;;;5.20;1.98;;;11.50;71.10;;;;;;7757537;22;20148;-75
2024/01/03 05:09:55;;;;;;;6.22;2.40;;;11.60;71.00;;;;;;7782862;22;20006;-76
2024/01/03 05:12:57;;;;;;;3.58;2.25;;;11.50;70.60;;;;;;7757465;22;20005;-76
2024/01/03 05:15:58;;;;;;;6.13;3.33;;;11.60;70.30;;;;;;7783246;22;20010;-76
2024/01/03 05:19:02;;;;;;;6.80;2.67;;;11.50;70.20;;;;;;7782759;22;20014;-76
2024/01/03 05:22:03;;;;;;;6.05;3.60;;;11.50;70.20;;;;;;7757443;22;20007;-75
2024/01/03 05:25:09;;;;;;;3.45;2.50;;;11.50;70.30;;;;;;7757465;22;20019;-75
2024/01/03 05:28:10;;;;;;;5.63;2.85;;;11.40;70.20;;;;;;7809845;22;20006;-75
2024/01/03 05:31:10;;;;;;;5.60;2.95;;;11.40;70.00;;;;;;7756489;22;20007;-76
2024/01/03 05:34:12;;;;;;;5.28;2.78;;;11.30;70.20;;;;;;7810148;22;20390;-76
2024/01/03 05:37:12;;;;;;;4.30;2.30;;;11.20;70.30;;;;;;7782728;22;20114;-77
2024/01/03 05:40:15;;;;;;;4.72;2.67;;;11.20;70.40;;;;;;7782430;22;20076;-74
2024/01/03 05:43:17;;;;;;;4.45;2.67;;;11.20;70.50;;;;;;7756768;22;20134;-75
2024/01/03 05:46:19;;;;;;;3.58;2.33;;;11.20;70.60;;;;;;7782015;22;20053;-76
2024/01/03 05:49:20;;;;;;;4.70;2.53;;;11.20;70.60;;;;;;7756495;22;20070;-76
2024/01/03 05:52:21;;;;;;;2.42;1.75;;;11.30;70.60;;;;;;7781439;22;19999;-76
2024/01/03 05:55:21;;;;;;;3.58;2.03;;;11.30;70.60;;;;;;7757867;22;20098;-76
2024/01/03 05:58:23;;;;;;;4.22;2.00;;;11.30;70.60;;;;;;7782685;22;20003;-76
2024/01/03 06:01:23;;;;;;;3.92;1.90;;;11.30;70.50;;;;;;7782708;22;20000;-76
2024/01/03 06:04:25;;;;;;;4.65;2.55;;;11.30;70.50;;;;;;7781660;22;20011;-75
2024/01/03 06:07:26;;;;;;;4.53;2.53;;;11.40;70.50;;;;;;7756430;22;20053;-75
2024/01/03 06:10:28;;;;;;;3.45;1.80;;;11.40;70.40;;;;;;7782563;22;20121;-75
2024/01/03 06:13:29;;;;;;;7.90;2.50;;;11.50;70.40;;;;;;7782154;22;20023;-76
2024/01/03 06:16:30;;;;;;;6.43;3.00;;;11.50;70.30;;;;;;7782059;22;20400;-76
2024/01/03 06:19:31;;;;;;;4.40;2.53;;;11.50;70.00;;;;;;7780972;22;20007;-76
2024/01/03 06:22:32;;;;;;;7.35;2.75;;;11.50;69.90;;;;;;7756680;22;20003;-74
2024/01/03 06:25:32;;;;;;;9.68;2.95;;;11.50;69.90;;;;;;7808925;22;20010;-75
2024/01/03 06:28:33;;;;;;;4.90;2.35;;;11.50;69.90;;;;;;7809074;22;20570;-76
2024/01/03 06:31:34;;;;;;;4.05;2.30;;;11.50;69.80;;;;;;7781150;22;20396;-76
2024/01/03 06:34:35;;;;;;;7.47;2.95;;;11.40;69.80;;;;;;7756475;22;20086;-77
2024/01/03 06:37:36;;;;;;;4.78;2.70;;;11.40;69.90;;;;;;7782469;22;20393;-76
2024/01/03 06:40:37;;;;;;;4.00;2.35;;;11.50;69.90;;;;;;7783446;22;20046;-76
2024/01/03 06:43:38;;;;;;;4.93;2.63;;;11.40;69.70;;;;;;7784277;22;20101;-76
2024/01/03 06:46:40;;;;;;;5.90;2.97;;;11.40;69.70;;;;;;7784609;22;20343;-77
2024/01/03 06:49:41;;;;;;;3.30;2.15;;;11.50;69.70;;;;;;7784629;22;20030;-77
2024/01/03 06:52:42;;;;;;;6.28;2.58;;;11.60;69.80;;;;;;7785074;22;20070;-74
2024/01/03 06:55:42;;;;;;;4.28;2.70;;;11.40;69.60;;;;;;7786335;22;20003;-77
2024/01/03 06:58:43;;;;;;;5.13;2.30;;;11.40;69.60;;;;;;7784103;22;20071;-78
2024/01/03 07:01:44;;;;;;;4.18;2.38;;;11.40;69.70;;;;;;7784572;22;20380;-75
2024/01/03 07:04:45;;;;;;;3.78;2.35;;;11.30;69.50;;;;;;7784505;22;20085;-76
2024/01/03 07:07:46;;;;;;;13.07;3.08;;;11.30;69.50;;;;;;7759511;22;19995;-77
2024/01/03 07:10:47;;;;;;;12.55;3.22;;;11.30;69.60;;;;;;7812279;22;20424;-77
2024/01/03 07:13:48;;;;;;;5.13;2.90;;;11.20;69.70;;;;;;7758602;22;20457;-77
2024/01/03 07:16:48;;;;;;;5.47;2.20;;;11.20;69.70;;;;;;7812079;22;20000;-77
2024/01/03 07:19:49;;;;;;;4.10;2.53;;;11.30;69.90;;;;;;7811395;22;20007;-76
2024/01/03 07:22:50;;;;;;;4.30;2.58;;;11.30;69.80;;;;;;7758697;22;20039;-76
2024/01/03 07:25:51;;;;;;;5.13;2.38;;;11.30;69.70;;;;;;7784290;22;20076;-76
2024/01/03 07:28:52;;;;;;;6.15;2.55;;;11.20;69.70;;;;;;7783831;22;20003;-76
2024/01/03 07:31:54;;;;;;;3.00;2.15;;;11.20;69.80;;;;;;7757505;22;20072;-76
2024/01/03 07:34:55;;;;;;;4.07;2.80;;;11.20;69.80;;;;;;7758655;22;20469;-76
2024/01/03 07:37:56;;;;;;;4.43;2.22;;;11.20;69.80;;;;;;7811040;22;20011;-76
2024/01/03 07:40:58;;;;;;;3.47;1.88;;;11.10;69.60;;;;;;7758335;22;20011;-76
2024/01/03 07:43:59;;;;;;;4.20;1.83;;;11.30;69.80;;;;;;7784646;22;20785;-75
2024/01/03 07:47:00;;;;;;;6.15;2.22;;;11.30;69.70;;;;;;7812996;22;20019;-76
2024/01/03 07:50:01;;;;;;;3.03;1.90;;;11.30;69.70;;;;;;7782224;22;19999;-76
2024/01/03 07:53:02;;;;;;;3.03;2.05;;;11.30;69.60;;;;;;7756798;22;20374;-76
2024/01/03 07:56:07;;;;;;;9.98;2.45;;;11.30;69.60;;;;;;7781469;22;20000;-75
2024/01/03 07:59:08;;;;;;;5.07;3.00;;;11.30;69.50;;;;;;7811756;22;20003;-74
2024/01/03 08:02:08;;;;;;;3.75;2.58;;;11.40;69.40;;;;;;7757643;22;20003;-76
2024/01/03 08:05:09;;;;;;;4.57;2.60;;;11.40;69.50;;;;;;7782537;22;20052;-75
2024/01/03 08:08:15;;;;;;;4.93;2.78;;;11.50;69.50;;;;;;7811348;22;20007;-76
2024/01/03 08:11:16;;;;;;;4.47;2.78;;;11.50;69.30;;;;;;7782608;22;20006;-76
2024/01/03 08:14:17;;;;;;;3.92;2.30;;;11.60;69.30;;;;;;7811276;22;20000;-77
2024/01/03 08:17:18;;;;;;;7.03;3.38;;;11.70;69.30;;;;;;7782766;22;20105;-75
2024/01/03 08:20:18;;;;;;;5.68;2.25;;;11.70;69.20;;;;;;7756901;22;20003;-76
2024/01/03 08:23:21;;;;;;;2.97;2.00;;;11.70;68.90;;;;;;7782113;22;20010;-75
2024/01/03 08:26:21;;;;;;;5.03;2.63;;;11.70;68.90;;;;;;7782408;22;20148;-76
2024/01/03 08:29:22;;;;;;;4.30;2.60;;;11.70;69.00;;;;;;7756635;22;20452;-75
2024/01/03 08:32:26;;;;;;;5.97;2.85;;;11.80;69.10;;;;;;7757021;22;20070;-75
2024/01/03 08:35:28;;;;;;;5.50;3.10;;;11.90;68.90;;;;;;7757546;22;20023;-76
2024/01/03 08:38:31;;;;;;;4.18;2.60;;;12.00;68.80;;;;;;7780431;22;20090;-76
2024/01/03 08:41:31;;;;;;;4.57;3.08;;;12.10;68.60;;;;;;7757934;22;20079;-75
2024/01/03 08:44:32;;;;;;;9.05;5.28;;;12.20;68.50;;;;;;7810297;22;20050;-76
2024/01/03 08:47:33;;;;;;;10.60;4.45;;;12.30;68.40;;;;;;7782052;22;20106;-75
2024/01/03 08:50:34;;;;;;;5.05;3.38;;;12.30;68.10;;;;;;7782475;22;20406;-75
2024/01/03 08:53:34;;;;;;;4.68;3.15;;;12.40;67.90;;;;;;7756889;22;20003;-77
2024/01/03 08:56:39;;;;;;;19.25;4.55;;;12.40;67.90;;;;;;7781660;22;20105;-76
2024/01/03 08:59:40;;;;;;;5.68;3.20;;;12.50;67.70;;;;;;7809791;22;20003;-75
2024/01/03 09:02:42;;;;;;;14.23;4.28;;;12.60;67.10;;;;;;7809037;22;20030;-77
2024/01/03 09:05:42;;;;;;;5.68;3.75;;;12.60;66.70;;;;;;7782380;22;20471;-77
2024/01/03 09:08:43;;;;;;;6.05;3.33;;;12.50;66.30;;;;;;7781659;22;19999;-75
2024/01/03 09:11:44;;;;;;;5.60;3.42;;;12.50;66.50;;;;;;7757161;22;20448;-74
2024/01/03 09:14:46;;;;;;;4.97;3.08;;;12.50;66.70;;;;;;7782877;22;20018;-76
2024/01/03 09:17:46;;;;;;;5.78;3.03;;;12.60;66.70;;;;;;7782156;22;20003;-73
2024/01/03 09:20:49;;;;;;;4.97;2.83;;;12.60;66.50;;;;;;7782496;22;20007;-77
2024/01/03 09:23:50;;;;;;;6.82;3.80;;;12.70;66.40;;;;;;7756083;22;20018;-75
2024/01/03 09:26:51;;;;;;;3.70;3.00;;;12.70;66.00;;;;;;7780622;22;20058;-76
2024/01/03 09:29:53;;;;;;;11.45;4.97;;;12.80;66.20;;;;;;7754887;22;20010;-76
2024/01/03 09:32:54;;;;;;;6.65;4.13;;;12.80;66.10;;;;;;7781400;22;20027;-76
2024/01/03 09:35:55;;;;;;;6.93;3.70;;;12.90;65.90;;;;;;7781299;22;20417;-77
2024/01/03 09:38:55;;;;;;;18.60;6.97;;;12.90;65.50;;;;;;7756119;22;20007;-74
2024/01/03 09:41:58;;;;;;;6.88;3.55;;;12.80;65.50;;;;;;7809569;22;20011;-76
2024/01/03 09:44:59;;;;;;;7.22;4.30;;;12.80;65.60;;;;;;7782126;22;20350;-76
2024/01/03 09:48:00;;;;;;;8.13;3.72;;;12.90;65.60;;;;;;7781813;22;20082;-76
2024/01/03 09:51:03;;;;;;;12.52;4.40;;;12.90;66.30;;;;;;7781709;22;20382;-76
2024/01/03 09:54:07;;;;;;;5.00;2.80;;;13.10;65.50;;;;;;7781260;22;20488;-76
2024/01/03 09:57:10;;;;;;;8.55;3.15;;;13.10;65.00;;;;;;7755927;22;20095;-76
2024/01/03 10:00:12;;;;;;;9.63;4.32;;;13.10;64.90;;;;;;7782275;22;20007;-76
2024/01/03 10:03:28;;;;;;;9.55;4.22;;;13.10;65.30;;;;;;7732029;22;20094;-76
2024/01/03 10:06:31;;;;;;;6.07;3.30;;;13.20;65.60;;;;;;7756135;22;20086;-76
2024/01/03 10:09:44;;;;;;;5.85;3.97;;;13.30;65.60;;;;;;7756329;22;20071;-76
2024/01/03 10:12:46;;;;;;;9.75;4.65;;;13.50;65.10;;;;;;7756540;22;20011;-76
2024/01/03 10:15:47;;;;;;;12.63;5.93;;;13.60;65.00;;;;;;7813323;22;20007;-77
2024/01/03 10:19:13;;;;;;;8.70;4.03;;;13.70;65.80;;;;;;7761615;22;20010;-79
2024/01/03 10:22:21;;;;;;;7.93;3.95;;;13.70;65.00;;;;;;7785844;22;20030;-76
2024/01/03 10:25:23;;;;;;;7.32;4.13;;;13.90;64.90;;;;;;7814498;22;20007;-75
2024/01/03 10:28:25;;;;;;;9.20;4.38;;;13.90;64.50;;;;;;7785792;22;19991;-76
2024/01/03 10:31:25;;;;;;;12.13;3.97;;;14.10;64.50;;;;;;7759360;22;20007;-76
2024/01/03 10:34:27;;;;;;;5.00;3.35;;;14.40;64.50;;;;;;7785135;22;20051;-75
2024/01/03 10:37:28;;;;;;;8.88;3.92;;;14.50;64.20;;;;;;7812548;22;20003;-77
2024/01/03 10:40:32;;;;;;;8.70;4.22;;;14.70;63.40;;;;;;7784890;22;20041;-76
2024/01/03 10:43:35;;;;;;;5.32;3.13;;;14.80;62.50;;;;;;7785056;22;20003;-76
2024/01/03 10:46:36;;;;;;;7.80;3.05;;;15.00;61.90;;;;;;7784502;22;20404;-74
2024/01/03 10:49:37;;;;;;;7.65;4.85;;;15.00;61.00;;;;;;7812159;22;20184;-75
2024/01/03 10:52:44;;;;;;;6.80;3.67;;;15.20;60.60;;;;;;7784659;22;20073;-76
2024/01/03 10:55:47;;;;;;;8.23;4.35;;;15.30;60.40;;;;;;7813350;22;20019;-76
2024/01/03 10:58:49;;;;;;;7.43;3.65;;;15.30;60.30;;;;;;7783992;22;20003;-76
2024/01/03 11:02:11;;;;;;;10.32;4.68;;;15.50;60.30;;;;;;7784704;22;20010;-77
2024/01/03 11:05:28;;;;;;;17.55;6.70;;;15.60;59.80;;;;;;7761268;22;20503;-78
2024/01/03 11:08:39;;;;;;;8.25;4.30;;;15.50;59.40;;;;;;7759120;22;20167;-76
2024/01/03 11:11:42;;;;;;;13.05;5.57;;;15.50;59.60;;;;;;7812910;22;20117;-78
2024/01/03 11:14:44;;;;;;;12.10;4.60;;;15.70;59.50;;;;;;7760515;22;20007;-77
2024/01/03 11:17:45;;;;;;;6.85;4.78;;;16.00;59.20;;;;;;7785228;22;20072;-77
2024/01/03 11:20:46;;;;;;;13.02;5.43;;;16.20;58.50;;;;;;7785227;22;20011;-77
2024/01/03 11:23:48;;;;;;;10.45;5.15;;;16.20;58.30;;;;;;7785103;22;20496;-77
2024/01/03 11:26:55;;;;;;;14.57;6.05;;;16.10;58.60;;;;;;7783398;22;19999;-77
2024/01/03 11:30:00;;;;;;;11.38;5.75;;;16.10;58.90;;;;;;7783606;22;20401;-77
2024/01/03 11:33:24;;;;;;;13.50;6.53;;;16.40;58.70;;;;;;7757846;22;20003;-77
2024/01/03 11:36:44;;;;;;;8.70;4.40;;;16.70;58.30;;;;;;7757397;22;20101;-76
2024/01/03 11:39:49;;;;;;;21.60;7.88;;;16.90;57.30;;;;;;7757248;22;20034;-75
2024/01/03 11:42:57;;;;;;;9.80;4.30;;;16.90;56.90;;;;;;7757875;22;20006;-77
2024/01/03 11:46:12;;;;;;;16.55;6.32;;;16.70;57.00;;;;;;7707012;22;20125;-77
2024/01/03 11:49:14;;;;;;;10.63;3.88;;;16.50;57.30;;;;;;7756542;22;20398;-76
2024/01/03 11:52:15;;;;;;;10.25;4.90;;;16.50;57.50;;;;;;7783628;22;20453;-77
2024/01/03 11:55:18;;;;;;;9.32;4.70;;;16.50;57.70;;;;;;7759334;22;20441;-75
2024/01/03 11:58:20;;;;;;;10.70;5.07;;;16.50;57.70;;;;;;7783941;22;20133;-77
2024/01/03 12:01:24;;;;;;;15.45;5.65;;;16.50;57.40;;;;;;7812324;22;20085;-76
2024/01/03 12:04:28;;;;;;;13.27;6.50;;;16.50;57.50;;;;;;7782352;22;20019;-76
2024/01/03 12:07:33;;;;;;;15.88;6.57;;;16.50;57.60;;;;;;7758347;22;20003;-76
2024/01/03 12:10:34;;;;;;;22.02;8.50;;;16.50;57.50;;;;;;7810012;22;20052;-76
2024/01/03 12:13:35;;;;;;;24.60;9.15;;;16.40;57.70;;;;;;7757039;22;20003;-76
2024/01/03 12:16:48;;;;;;;31.83;9.15;;;16.40;57.60;;;;;;7783125;22;20374;-77
2024/01/03 12:19:49;;;;;;;18.90;7.70;;;16.30;57.80;;;;;;7782548;22;20140;-76
2024/01/03 12:22:50;;;;;;;20.20;7.53;;;16.20;57.90;;;;;;7757550;22;19999;-75
2024/01/03 12:25:52;;;;;;;20.52;7.93;;;16.20;58.00;;;;;;7782612;22;20011;-77
2024/01/03 12:29:02;;;;;;;18.65;7.68;;;16.20;58.20;;;;;;7781817;22;20014;-77
2024/01/03 12:32:10;;;;;;;13.02;5.57;;;16.30;58.20;;;;;;7783012;22;21390;-76
2024/01/03 12:35:12;;;;;;;18.58;6.85;;;16.30;58.10;;;;;;7809235;22;20003;-75
2024/01/03 12:38:14;;;;;;;18.40;7.22;;;16.30;58.30;;;;;;7782080;22;20044;-76
2024/01/03 12:41:15;;;;;;;14.27;6.60;;;16.30;58.20;;;;;;7782030;22;20102;-78
2024/01/03 12:44:16;;;;;;;15.32;5.82;;;16.20;58.30;;;;;;7757245;22;20017;-76
2024/01/03 12:47:17;;;;;;;12.15;6.07;;;16.20;58.50;;;;;;7757088;22;20084;-76
2024/01/03 12:50:17;;;;;;;17.90;7.95;;;16.20;58.60;;;;;;7782314;22;19995;-77
2024/01/03 12:53:19;;;;;;;12.00;6.00;;;16.10;58.70;;;;;;7757285;22;20003;-77
2024/01/03 12:56:20;;;;;;;16.00;6.75;;;16.10;58.90;;;;;;7782181;22;19999;-75
2024/01/03 12:59:23;;;;;;;16.23;7.15;;;16.10;58.90;;;;;;7756033;22;20003;-79
2024/01/03 13:02:25;;;;;;;8.15;4.45;;;16.00;59.10;;;;;;7782532;22;20349;-78
2024/01/03 13:05:26;;;;;;;13.60;5.45;;;16.00;59.10;;;;;;7755661;22;20094;-75
2024/01/03 13:08:27;;;;;;;5.90;3.92;;;15.90;58.90;;;;;;7781144;22;20005;-76
2024/01/03 13:11:28;;;;;;;6.03;3.03;;;16.00;59.10;;;;;;7755976;22;20003;-78
2024/01/03 13:14:29;;;;;;;8.25;3.92;;;15.90;59.10;;;;;;7780925;22;20121;-76
2024/01/03 13:17:30;;;;;;;9.20;3.90;;;15.90;58.90;;;;;;7782652;22;20032;-75
2024/01/03 13:20:33;;;;;;;9.05;3.95;;;15.90;58.70;;;;;;7808742;22;20027;-76
2024/01/03 13:23:34;;;;;;;15.48;4.78;;;15.90;58.60;;;;;;7781545;22;20044;-77
2024/01/03 13:26:36;;;;;;;11.02;5.35;;;16.00;58.40;;;;;;7810090;22;20477;-77
2024/01/03 13:29:38;;;;;;;19.20;6.60;;;16.00;58.30;;;;;;7781257;22;20011;-76
2024/01/03 13:32:41;;;;;;;13.45;5.63;;;16.10;58.40;;;;;;7782107;22;20367;-77
2024/01/03 13:35:42;;;;;;;8.60;5.13;;;16.10;58.30;;;;;;7755345;22;20054;-77
2024/01/03 13:38:43;;;;;;;13.77;5.80;;;16.20;58.20;;;;;;7781638;22;20003;-78
2024/01/03 13:41:46;;;;;;;17.50;5.70;;;16.20;58.30;;;;;;7756663;22;20452;-76
2024/01/03 13:44:47;;;;;;;16.08;6.95;;;16.20;58.30;;;;;;7780262;22;20019;-76
2024/01/03 13:47:49;;;;;;;14.93;7.03;;;16.20;58.50;;;;;;7782043;22;20084;-77
2024/01/03 13:50:52;;;;;;;21.23;6.68;;;16.10;58.70;;;;;;7755719;22;20011;-76
2024/01/03 13:53:53;;;;;;;13.63;5.90;;;16.10;58.90;;;;;;7755309;22;20637;-75
2024/01/03 13:56:56;;;;;;;9.45;4.80;;;16.10;58.90;;;;;;7781395;22;20002;-77
2024/01/03 14:00:00;;;;;;;12.10;5.97;;;16.00;58.90;;;;;;7781117;22;20217;-76
2024/01/03 14:03:04;;;;;;;12.32;6.22;;;16.00;59.00;;;;;;7756714;22;20069;-76
2024/01/03 14:06:05;;;;;;;16.70;6.80;;;15.90;59.20;;;;;;7756309;22;20065;-76
2024/01/03 14:09:08;;;;;;;14.48;6.18;;;15.90;59.40;;;;;;7756352;22;20500;-77
2024/01/03 14:12:09;;;;;;;11.35;6.18;;;15.90;59.50;;;;;;7809725;22;20065;-77
2024/01/03 14:15:10;;;;;;;13.73;6.22;;;15.90;59.50;;;;;;7755646;22;20006;-75
2024/01/03 14:18:11;;;;;;;18.10;6.72;;;15.90;59.60;;;;;;7809741;22;20082;-76
2024/01/03 14:21:12;;;;;;;20.95;7.15;;;16.00;59.60;;;;;;7755955;22;20039;-77
2024/01/03 14:24:14;;;;;;;12.60;5.70;;;16.00;59.70;;;;;;7808878;22;20015;-75
2024/01/03 14:27:16;;;;;;;12.23;5.40;;;15.90;59.60;;;;;;7808656;22;20074;-77
2024/01/03 14:30:18;;;;;;;15.98;6.68;;;15.90;59.70;;;;;;7780638;22;19999;-77
2024/01/03 14:33:20;;;;;;;16.92;5.55;;;15.80;59.70;;;;;;7782111;22;19995;-77
2024/01/03 14:36:21;;;;;;;12.10;5.93;;;15.80;59.90;;;;;;7757110;22;20361;-76
2024/01/03 14:39:24;;;;;;;7.05;3.80;;;15.80;60.00;;;;;;7756113;22;20026;-77
2024/01/03 14:42:26;;;;;;;6.63;3.63;;;15.80;60.00;;;;;;7782201;22;20382;-77
2024/01/03 14:45:30;;;;;;;7.88;3.30;;;15.80;59.90;;;;;;7782540;22;20429;-75
2024/01/03 14:48:32;;;;;;;12.98;3.88;;;15.80;59.70;;;;;;7755957;22;20030;-76
2024/01/03 14:51:34;;;;;;;5.72;2.92;;;15.80;59.50;;;;;;7756641;22;20091;-76
2024/01/03 14:54:37;;;;;;;6.95;3.10;;;15.80;59.40;;;;;;7782017;22;20008;-76
2024/01/03 14:57:39;;;;;;;10.18;2.80;;;15.80;59.00;;;;;;7781949;22;20019;-75
2024/01/03 15:00:40;;;;;;;9.00;3.95;;;15.80;59.00;;;;;;7755984;22;20034;-75
2024/01/03 15:03:41;;;;;;;7.07;2.83;;;15.80;58.90;;;;;;7758496;22;20398;-77
2024/01/03 15:06:53;;;;;;;10.38;3.30;;;15.80;58.80;;;;;;7785473;22;20018;-77
2024/01/03 15:09:54;;;;;;;7.80;3.65;;;15.80;58.80;;;;;;7784944;22;20010;-77
2024/01/03 15:12:55;;;;;;;6.28;2.67;;;15.90;58.70;;;;;;7784142;22;20015;-75
2024/01/03 15:15:57;;;;;;;6.40;2.28;;;16.00;58.50;;;;;;7759583;22;20011;-76
2024/01/03 15:18:58;;;;;;;6.45;2.78;;;16.00;58.10;;;;;;7758817;22;20003;-76
2024/01/03 15:22:07;;;;;;;4.30;2.10;;;16.00;57.90;;;;;;7784827;22;20086;-75
2024/01/03 15:25:08;;;;;;;8.13;2.47;;;16.00;57.90;;;;;;7784141;22;20035;-74
2024/01/03 15:28:09;;;;;;;6.68;2.63;;;16.00;57.90;;;;;;7733938;22;20025;-76
2024/01/03 15:31:10;;;;;;;9.23;3.13;;;16.00;57.90;;;;;;7783562;22;20067;-76
2024/01/03 15:34:11;;;;;;;9.30;2.45;;;16.00;57.80;;;;;;7758146;22;20459;-75
2024/01/03 15:37:12;;;;;;;9.02;2.75;;;15.90;57.80;;;;;;7784656;22;19995;-78
2024/01/03 15:40:13;;;;;;;4.82;2.72;;;15.80;58.00;;;;;;7759258;22;20011;-77
2024/01/03 15:43:16;;;;;;;14.23;2.50;;;15.80;58.00;;;;;;7784781;22;20023;-76
2024/01/03 15:46:17;;;;;;;4.80;2.40;;;15.70;58.10;;;;;;7758545;22;20023;-79